createdAt,value
2019-02-09T00:01:37.768Z,100274.11
2019-02-09T00:04:04.632Z,100275.83
2019-02-09T00:06:31.822Z,100264.52
2019-02-09T00:08:58.883Z,100262.72
2019-02-09T00:11:25.650Z,100252.73
2019-02-09T00:13:52.503Z,100244.02
2019-02-09T00:16:19.325Z,100236.19
2019-02-09T00:18:46.182Z,100236.19
2019-02-09T00:21:12.947Z,100231.77
2019-02-09T00:23:39.930Z,100224.81
2019-02-09T00:26:06.782Z,100210.91
2019-02-09T00:28:33.921Z,100214.80
2019-02-09T00:31:00.903Z,100208.39
2019-02-09T00:33:27.766Z,100210.11
2019-02-09T00:35:54.622Z,100207.44
2019-02-09T00:38:21.456Z,100197.47
2019-02-09T00:40:48.204Z,100203.16
2019-02-09T00:43:15.258Z,100190.95
2019-02-09T00:45:42.699Z,100196.98
2019-02-09T00:48:09.545Z,100198.70
2019-02-09T00:50:36.709Z,100194.77
2019-02-09T00:53:04.111Z,100193.93
2019-02-09T00:55:31.182Z,100189.66
2019-02-09T00:57:58.219Z,100185.31
2019-02-09T01:00:25.417Z,100180.09
2019-02-09T01:02:52.178Z,100176.60
2019-02-09T01:05:21.496Z,100174.37
2019-02-09T01:07:48.456Z,100177.41
2019-02-09T01:10:15.449Z,100176.52
2019-02-09T01:12:42.311Z,100163.91
2019-02-09T01:15:11.646Z,100148.69
2019-02-09T01:17:39.195Z,100153.06
2019-02-09T01:20:47.865Z,100146.19
2019-02-09T01:23:14.905Z,100155.23
2019-02-09T01:25:41.643Z,100139.55
2019-02-09T01:28:08.431Z,100142.64
2019-02-09T01:30:35.561Z,100131.72
2019-02-09T01:33:02.391Z,100140.03
2019-02-09T01:35:29.242Z,100139.58
2019-02-09T01:37:56.070Z,100124.06
2019-02-09T01:40:24.118Z,100115.44
2019-02-09T01:42:51.116Z,100103.59
2019-02-09T01:45:23.233Z,100104.55
2019-02-09T01:47:50.055Z,100096.31
2019-02-09T01:50:17.559Z,100094.95
2019-02-09T01:52:44.397Z,100084.16
2019-02-09T01:55:11.548Z,100085.54
2019-02-09T01:57:38.794Z,100081.23
2019-02-09T02:00:10.834Z,100073.48
2019-02-09T02:02:37.867Z,100067.87
2019-02-09T02:05:05.075Z,100066.15
2019-02-09T02:07:32.090Z,100067.87
2019-02-09T02:09:58.835Z,100054.83
2019-02-09T02:12:25.546Z,100051.39
2019-02-09T02:14:52.276Z,100039.70
2019-02-09T02:17:19.001Z,100034.06
2019-02-09T02:19:45.888Z,100028.67
2019-02-09T02:22:12.980Z,100025.28
2019-02-09T02:24:39.711Z,100019.17
2019-02-09T02:27:06.571Z,100013.87
2019-02-09T02:29:33.596Z,100007.44
2019-02-09T02:32:00.436Z,100005.30
2019-02-09T02:34:27.728Z,100007.05
2019-02-09T02:36:54.827Z,100002.77
2019-02-09T02:39:21.575Z,99995.06
2019-02-09T02:41:48.721Z,99990.67
2019-02-09T02:44:15.554Z,99980.19
2019-02-09T02:46:42.556Z,99983.34
2019-02-09T02:49:09.455Z,99975.47
2019-02-09T02:51:36.079Z,99969.80
2019-02-09T02:54:02.943Z,99964.19
2019-02-09T02:56:29.841Z,99960.69
2019-02-09T02:58:56.667Z,99958.10
2019-02-09T03:01:23.304Z,99952.39
2019-02-09T03:04:03.286Z,99949.27
2019-02-09T03:06:30.028Z,99947.42
2019-02-09T03:08:56.758Z,99936.56
2019-02-09T03:11:23.664Z,99928.59
2019-02-09T03:13:50.713Z,99919.41
2019-02-09T03:16:17.581Z,99915.08
2019-02-09T03:18:44.382Z,99892.44
2019-02-09T03:21:11.124Z,99893.95
2019-02-09T03:23:37.757Z,99890.30
2019-02-09T03:26:04.707Z,99891.92
2019-02-09T03:28:31.443Z,99878.47
2019-02-09T03:30:58.176Z,99877.96
2019-02-09T03:33:25.174Z,99880.13
2019-02-09T03:35:52.192Z,99875.65
2019-02-09T03:38:19.060Z,99858.68
2019-02-09T03:40:45.880Z,99866.31
2019-02-09T03:43:12.713Z,99861.41
2019-02-09T03:45:39.448Z,99854.45
2019-02-09T03:48:06.453Z,99846.88
2019-02-09T03:50:33.372Z,99845.11
2019-02-09T03:53:00.357Z,99844.85
2019-02-09T03:55:27.516Z,99840.47
2019-02-09T03:57:54.344Z,99839.02
2019-02-09T04:00:22.898Z,99840.33
2019-02-09T04:02:49.928Z,99835.97
2019-02-09T04:05:16.980Z,99830.14
2019-02-09T04:07:44.027Z,99826.75
2019-02-09T04:10:12.610Z,99824.55
2019-02-09T04:12:39.392Z,99824.94
2019-02-09T04:15:28.091Z,99825.30
2019-02-09T04:17:54.954Z,99819.50
2019-02-09T04:20:43.303Z,99818.22
2019-02-09T04:23:10.148Z,99806.55
2019-02-09T04:25:37.007Z,99814.55
2019-02-09T04:28:04.291Z,99821.16
2019-02-09T04:30:31.181Z,99817.66
2019-02-09T04:32:58.445Z,99806.27
2019-02-09T04:35:25.595Z,99799.53
2019-02-09T04:37:52.804Z,99798.17
2019-02-09T04:40:24.354Z,99803.58
2019-02-09T04:42:51.289Z,99789.23
2019-02-09T04:45:18.153Z,99789.17
2019-02-09T04:47:45.006Z,99782.09
2019-02-09T04:50:12.818Z,99779.92
2019-02-09T04:52:40.235Z,99780.38
2019-02-09T04:55:10.775Z,99783.54
2019-02-09T04:57:38.259Z,99794.44
2019-02-09T05:00:06.917Z,99773.94
2019-02-09T05:02:34.429Z,99776.97
2019-02-09T05:05:01.649Z,99777.30
2019-02-09T05:07:28.818Z,99775.25
2019-02-09T05:09:56.208Z,99769.70
2019-02-09T05:12:23.780Z,99762.53
2019-02-09T05:14:50.925Z,99761.53
2019-02-09T05:17:18.042Z,99762.63
2019-02-09T05:19:45.268Z,99765.88
2019-02-09T05:22:12.364Z,99768.11
2019-02-09T05:24:39.496Z,99782.55
2019-02-09T05:27:06.664Z,99772.92
2019-02-09T05:29:33.934Z,99768.17
2019-02-09T05:32:01.049Z,99764.28
2019-02-09T05:34:28.393Z,99774.70
2019-02-09T05:36:55.826Z,99773.49
2019-02-09T05:39:23.239Z,99764.02
2019-02-09T05:41:50.479Z,99777.09
2019-02-09T05:44:18.008Z,99768.27
2019-02-09T05:46:45.148Z,99760.77
2019-02-09T05:49:12.396Z,99760.84
2019-02-09T05:51:39.513Z,99764.37
2019-02-09T05:54:06.829Z,99768.36
2019-02-09T05:56:33.998Z,99765.48
2019-02-09T05:59:01.636Z,99768.94
2019-02-09T06:01:32.374Z,99769.05
2019-02-09T06:03:57.934Z,99758.70
2019-02-09T06:06:25.081Z,99766.41
2019-02-09T06:09:05.037Z,99776.87
2019-02-09T06:11:32.328Z,99762.05
2019-02-09T06:13:59.433Z,99755.97
2019-02-09T06:16:26.719Z,99767.49
2019-02-09T06:18:53.796Z,99768.76
2019-02-09T06:21:21.378Z,99780.16
2019-02-09T06:23:48.621Z,99766.63
2019-02-09T06:26:35.247Z,99770.78
2019-02-09T06:29:02.375Z,99759.14
2019-02-09T06:31:29.467Z,99762.22
2019-02-09T06:33:56.589Z,99756.30
2019-02-09T06:36:43.366Z,99754.58
2019-02-09T06:39:10.194Z,99755.59
2019-02-09T06:41:36.998Z,99769.98
2019-02-09T06:44:03.881Z,99768.53
2019-02-09T06:46:31.121Z,99771.27
2019-02-09T06:48:58.136Z,99774.03
2019-02-09T06:51:25.030Z,99776.05
2019-02-09T06:53:51.923Z,99775.66
2019-02-09T06:56:18.661Z,99779.08
2019-02-09T06:58:45.459Z,99775.14
2019-02-09T07:01:12.387Z,99769.39
2019-02-09T07:03:39.124Z,99770.92
2019-02-09T07:06:06.365Z,99777.59
2019-02-09T07:08:33.220Z,99781.27
2019-02-09T07:11:00.135Z,99781.64
2019-02-09T07:13:27.329Z,99786.47
2019-02-09T07:15:54.551Z,99782.03
2019-02-09T07:18:21.294Z,99787.17
2019-02-09T07:20:48.960Z,99795.89
2019-02-09T07:23:16.002Z,99792.20
2019-02-09T07:25:42.888Z,99791.45
2019-02-09T07:28:10.130Z,99791.97
2019-02-09T07:30:37.025Z,99799.42
2019-02-09T07:33:45.144Z,99800.62
2019-02-09T07:36:12.253Z,99801.38
2019-02-09T07:38:39.368Z,99796.08
2019-02-09T07:41:06.576Z,99797.48
2019-02-09T07:43:33.691Z,99795.37
2019-02-09T07:46:01.142Z,99798.38
2019-02-09T07:48:28.346Z,99794.14
2019-02-09T07:50:55.480Z,99801.03
2019-02-09T07:53:22.587Z,99801.84
2019-02-09T07:55:49.777Z,99804.45
2019-02-09T07:58:17.330Z,99804.90
2019-02-09T08:00:44.462Z,99803.73
2019-02-09T08:03:11.673Z,99806.20
2019-02-09T08:05:39.180Z,99812.83
2019-02-09T08:08:06.263Z,99811.53
2019-02-09T08:10:33.584Z,99814.14
2019-02-09T08:16:08.947Z,99816.33
2019-02-09T08:18:36.408Z,99818.58
2019-02-09T08:21:03.703Z,99819.98
2019-02-09T08:23:30.889Z,99821.19
2019-02-09T08:25:57.977Z,99821.56
2019-02-09T08:28:25.104Z,99820.01
2019-02-09T08:30:52.279Z,99808.69
2019-02-09T08:33:19.415Z,99812.18
2019-02-09T08:35:47.583Z,99812.88
2019-02-09T08:38:15.246Z,99804.41
2019-02-09T08:40:42.396Z,99815.47
2019-02-09T08:43:09.606Z,99809.63
2019-02-09T08:45:36.786Z,99812.02
2019-02-09T08:48:44.738Z,99805.77
2019-02-09T08:51:13.124Z,99809.58
2019-02-09T08:53:40.342Z,99818.58
2019-02-09T08:56:07.443Z,99819.89
2019-02-09T08:58:34.862Z,99828.25
2019-02-09T09:01:02.018Z,99825.11
2019-02-09T09:03:29.090Z,99825.61
2019-02-09T09:05:56.544Z,99828.11
2019-02-09T09:08:23.662Z,99825.78
2019-02-09T09:10:50.979Z,99821.52
2019-02-09T09:13:18.214Z,99821.94
2019-02-09T09:15:50.890Z,99827.41
2019-02-09T09:18:17.984Z,99832.20
2019-02-09T09:21:05.907Z,99827.97
2019-02-09T09:23:33.049Z,99813.19
2019-02-09T09:26:00.457Z,99844.22
2019-02-09T09:28:27.898Z,99845.45
2019-02-09T09:30:55.014Z,99856.79
2019-02-09T09:33:22.108Z,99846.88
2019-02-09T09:35:49.287Z,99867.77
2019-02-09T09:38:16.393Z,99852.78
2019-02-09T09:40:44.346Z,99862.34
2019-02-09T09:43:12.043Z,99865.97
2019-02-09T09:45:39.277Z,99866.61
2019-02-09T09:48:08.225Z,99865.22
2019-02-09T09:50:35.506Z,99864.47
2019-02-09T09:53:02.632Z,99863.08
2019-02-09T09:55:30.096Z,99869.73
2019-02-09T09:57:57.372Z,99865.06
2019-02-09T10:00:24.753Z,99848.59
2019-02-09T10:02:51.869Z,99865.40
2019-02-09T10:05:19.363Z,99869.05
2019-02-09T10:07:46.474Z,99861.27
2019-02-09T10:10:33.586Z,99863.71
2019-02-09T10:13:00.708Z,99866.10
2019-02-09T10:15:27.823Z,99866.13
2019-02-09T10:17:55.256Z,99865.99
2019-02-09T10:20:23.275Z,99874.11
2019-02-09T10:23:11.741Z,99864.91
2019-02-09T10:25:39.236Z,99862.70
2019-02-09T10:28:06.439Z,99869.30
2019-02-09T10:30:33.974Z,99876.28
2019-02-09T10:33:01.598Z,99869.39
2019-02-09T10:35:28.684Z,99879.03
2019-02-09T10:37:55.899Z,99878.97
2019-02-09T10:40:25.038Z,99878.52
2019-02-09T10:42:52.852Z,99878.67
2019-02-09T10:45:21.742Z,99875.01
2019-02-09T10:47:48.854Z,99875.84
2019-02-09T10:50:36.539Z,99872.95
2019-02-09T10:53:04.281Z,99868.56
2019-02-09T10:55:31.380Z,99882.42
2019-02-09T10:57:59.093Z,99878.64
2019-02-09T11:00:28.985Z,99891.30
2019-02-09T11:02:56.100Z,99881.61
2019-02-09T11:05:23.429Z,99893.27
2019-02-09T11:07:50.527Z,99879.11
2019-02-09T11:10:18.026Z,99870.55
2019-02-09T11:12:45.682Z,99871.87
2019-02-09T11:15:14.629Z,99869.15
2019-02-09T11:17:41.847Z,99879.64
2019-02-09T11:20:11.333Z,99869.35
2019-02-09T11:22:38.429Z,99874.42
2019-02-09T11:25:06.737Z,99893.77
2019-02-09T11:27:33.921Z,99889.95
2019-02-09T11:30:01.501Z,99888.86
2019-02-09T11:32:28.627Z,99891.23
2019-02-09T11:34:55.819Z,99890.17
2019-02-09T11:37:22.934Z,99895.22
2019-02-09T11:39:50.465Z,99905.67
2019-02-09T11:42:17.755Z,99902.23
2019-02-09T11:44:45.182Z,99895.45
2019-02-09T11:47:12.353Z,99893.07
2019-02-09T11:49:39.884Z,99894.45
2019-02-09T11:52:07.928Z,99899.56
2019-02-09T11:54:36.521Z,99901.00
2019-02-09T11:57:03.704Z,99904.06
2019-02-09T11:59:31.216Z,99897.62
2019-02-09T12:01:58.871Z,99909.47
2019-02-09T12:04:26.127Z,99902.06
2019-02-09T12:06:53.583Z,99900.13
2019-02-09T12:09:20.697Z,99894.36
2019-02-09T12:11:47.868Z,99894.77
2019-02-09T12:14:14.976Z,99898.36
2019-02-09T12:16:42.429Z,99901.05
2019-02-09T12:19:09.693Z,99897.45
2019-02-09T12:21:36.908Z,99898.84
2019-02-09T12:24:04.114Z,99894.77
2019-02-09T12:26:31.744Z,99895.72
2019-02-09T12:28:58.848Z,99901.61
2019-02-09T12:31:25.966Z,99905.59
2019-02-09T12:33:53.604Z,99921.65
2019-02-09T12:36:20.729Z,99916.43
2019-02-09T12:38:48.232Z,99931.59
2019-02-09T12:41:15.417Z,99965.47
2019-02-09T12:43:42.491Z,99947.87
2019-02-09T12:46:09.582Z,99935.64
2019-02-09T12:48:36.777Z,99933.92
2019-02-09T12:51:04.016Z,99931.13
2019-02-09T12:53:31.346Z,99929.03
2019-02-09T12:55:58.584Z,99922.06
2019-02-09T12:58:26.119Z,99922.98
2019-02-09T13:00:53.209Z,99929.17
2019-02-09T13:03:30.701Z,99932.70
2019-02-09T13:05:51.794Z,99927.72
2019-02-09T13:08:18.908Z,99926.07
2019-02-09T13:10:46.145Z,99921.95
2019-02-09T13:13:13.256Z,99934.32
2019-02-09T13:15:40.365Z,99940.08
2019-02-09T13:18:07.589Z,99941.50
2019-02-09T13:20:34.702Z,99944.22
2019-02-09T13:23:14.246Z,99944.70
2019-02-09T13:25:41.340Z,99954.97
2019-02-09T13:28:08.461Z,99947.54
2019-02-09T13:33:38.635Z,99937.79
2019-02-09T13:35:59.940Z,99932.36
2019-02-09T13:38:27.041Z,99941.47
2019-02-09T13:40:54.214Z,99936.98
2019-02-09T13:43:21.363Z,99933.77
2019-02-09T13:45:50.273Z,99926.69
2019-02-09T13:48:17.420Z,99932.95
2019-02-09T13:50:44.536Z,99938.66
2019-02-09T13:53:11.827Z,99934.45
2019-02-09T13:55:39.317Z,99940.83
2019-02-09T13:58:06.522Z,99923.56
2019-02-09T14:00:33.742Z,99924.41
2019-02-09T14:03:00.923Z,99932.89
2019-02-09T14:05:28.069Z,99936.34
2019-02-09T14:07:55.216Z,99939.28
2019-02-09T14:11:03.444Z,99932.53
2019-02-09T14:13:30.927Z,99941.73
2019-02-09T14:15:58.051Z,99945.94
2019-02-09T14:18:25.255Z,99951.55
2019-02-09T14:20:52.325Z,99947.60
2019-02-09T14:23:19.476Z,99948.64
2019-02-09T14:25:47.598Z,99941.71
2019-02-09T14:28:14.952Z,99940.75
2019-02-09T14:30:42.100Z,99948.52
2019-02-09T14:33:09.435Z,99949.15
2019-02-09T14:36:18.679Z,99965.43
2019-02-09T14:38:46.258Z,99961.66
2019-02-09T14:41:13.358Z,99963.03
2019-02-09T14:43:40.457Z,99959.09
2019-02-09T14:46:07.715Z,99958.78
2019-02-09T14:48:35.162Z,99979.27
2019-02-09T14:51:02.252Z,99982.30
2019-02-09T14:53:29.982Z,99979.86
2019-02-09T14:55:57.123Z,99978.00
2019-02-09T14:58:24.213Z,99983.35
2019-02-09T15:00:52.351Z,99980.67
2019-02-09T15:03:26.290Z,99973.97
2019-02-09T15:05:48.819Z,99979.63
2019-02-09T15:08:15.933Z,99976.31
2019-02-09T15:10:43.034Z,99978.28
2019-02-09T15:13:12.158Z,99977.86
2019-02-09T15:15:46.994Z,99990.91
2019-02-09T15:18:14.259Z,99984.24
2019-02-09T15:21:01.162Z,99989.50
2019-02-09T15:23:28.487Z,99978.52
2019-02-09T15:25:55.623Z,99991.88
2019-02-09T15:28:22.888Z,99986.19
2019-02-09T15:30:50.044Z,99983.77
2019-02-09T15:33:17.310Z,99984.19
2019-02-09T15:35:45.409Z,99984.42
2019-02-09T15:38:13.075Z,99990.92
2019-02-09T15:40:40.216Z,99987.63
2019-02-09T15:43:07.605Z,99985.91
2019-02-09T15:45:34.708Z,99987.01
2019-02-09T15:48:01.809Z,99984.35
2019-02-09T15:50:29.373Z,99988.27
2019-02-09T15:52:56.516Z,99983.38
2019-02-09T15:55:23.729Z,99990.94
2019-02-09T15:57:50.897Z,99987.29
2019-02-09T16:00:37.500Z,99989.71
2019-02-09T16:03:05.041Z,99994.88
2019-02-09T16:05:32.169Z,99993.33
2019-02-09T16:08:00.472Z,99998.04
2019-02-09T16:10:28.604Z,100003.62
2019-02-09T16:12:56.749Z,100001.72
2019-02-09T16:15:25.102Z,100005.21
2019-02-09T16:17:52.273Z,100012.27
2019-02-09T16:20:20.393Z,100010.20
2019-02-09T16:22:47.489Z,100015.49
2019-02-09T16:25:15.182Z,100023.49
2019-02-09T16:27:42.363Z,100020.70
2019-02-09T16:30:22.240Z,100026.58
2019-02-09T16:32:49.525Z,100028.13
2019-02-09T16:35:17.672Z,100018.27
2019-02-09T16:37:45.166Z,100030.05
2019-02-09T16:40:54.558Z,100019.25
2019-02-09T16:43:21.699Z,100022.14
2019-02-09T16:45:48.894Z,100020.19
2019-02-09T16:48:15.851Z,100018.20
2019-02-09T16:50:42.871Z,100026.94
2019-02-09T16:53:09.988Z,100027.28
2019-02-09T16:55:36.867Z,100022.30
2019-02-09T16:58:46.148Z,100023.27
2019-02-09T17:01:15.734Z,100021.84
2019-02-09T17:03:43.939Z,100022.05
2019-02-09T17:06:13.145Z,100034.74
2019-02-09T17:08:41.139Z,100034.60
2019-02-09T17:11:09.271Z,100037.30
2019-02-09T17:13:37.979Z,100036.67
2019-02-09T17:16:05.651Z,100037.56
2019-02-09T17:18:34.359Z,100036.30
2019-02-09T17:21:02.644Z,100039.00
2019-02-09T17:23:32.334Z,100035.48
2019-02-09T17:25:59.790Z,100034.44
2019-02-09T17:28:27.912Z,100031.28
2019-02-09T17:31:07.494Z,100032.59
2019-02-09T17:33:35.061Z,100015.89
2019-02-09T17:36:02.169Z,100033.16
2019-02-09T17:38:29.317Z,100031.48
2019-02-09T17:40:56.625Z,100034.88
2019-02-09T17:43:24.090Z,100036.53
2019-02-09T17:45:55.155Z,100034.70
2019-02-09T17:48:25.081Z,100048.01
2019-02-09T17:51:15.919Z,100065.44
2019-02-09T17:54:03.934Z,100073.91
2019-02-09T17:56:32.654Z,100089.62
2019-02-09T17:59:00.411Z,100119.93
2019-02-09T18:01:27.581Z,100133.58
2019-02-09T18:03:54.696Z,100155.23
2019-02-09T18:06:42.460Z,100147.82
2019-02-09T18:09:12.795Z,100135.87
2019-02-09T18:11:40.518Z,100134.33
2019-02-09T18:14:27.975Z,100149.61
2019-02-09T18:17:15.389Z,100154.16
2019-02-09T18:20:25.760Z,100152.41
2019-02-09T18:22:53.130Z,100141.64
2019-02-09T18:25:20.773Z,100139.50
2019-02-09T18:27:47.923Z,100136.91
2019-02-09T18:30:34.482Z,100131.36
2019-02-09T18:33:14.777Z,100124.47
2019-02-09T18:36:02.768Z,100131.83
2019-02-09T18:38:49.569Z,100130.50
2019-02-09T18:41:17.503Z,100127.04
2019-02-09T18:44:06.064Z,100113.08
2019-02-09T18:46:34.147Z,100116.18
2019-02-09T18:49:20.955Z,100111.77
2019-02-09T18:51:49.425Z,100117.69
2019-02-09T18:54:16.159Z,100114.13
2019-02-09T18:56:43.206Z,100115.80
2019-02-09T18:59:10.231Z,100111.03
2019-02-09T19:01:36.972Z,100117.06
2019-02-09T19:04:03.815Z,100116.61
2019-02-09T19:06:31.379Z,100120.20
2019-02-09T19:08:59.417Z,100121.06
2019-02-09T19:11:27.839Z,100120.92
2019-02-09T19:14:14.955Z,100120.54
2019-02-09T19:16:42.937Z,100126.13
2019-02-09T19:19:11.027Z,100133.74
2019-02-09T19:21:38.480Z,100133.20
2019-02-09T19:24:07.371Z,100132.00
2019-02-09T19:26:36.387Z,100134.08
2019-02-09T19:29:05.173Z,100133.75
2019-02-09T19:31:33.676Z,100134.17
2019-02-09T19:34:01.634Z,100138.80
2019-02-09T19:36:31.795Z,100131.80
2019-02-09T19:38:59.393Z,100136.93
2019-02-09T19:41:26.505Z,100139.03
2019-02-09T19:43:53.625Z,100139.73
2019-02-09T19:46:20.973Z,100142.44
2019-02-09T19:48:48.077Z,100141.05
2019-02-09T19:51:15.172Z,100143.63
2019-02-09T19:53:42.337Z,100156.92
2019-02-09T19:56:09.428Z,100159.88
2019-02-09T19:58:37.290Z,100167.42
2019-02-09T20:01:05.188Z,100154.73
2019-02-09T20:03:32.288Z,100163.17
2019-02-09T20:05:59.365Z,100169.41
2019-02-09T20:08:26.887Z,100169.65
2019-02-09T20:10:54.478Z,100181.80
2019-02-09T20:13:21.626Z,100190.06
2019-02-09T20:15:48.851Z,100188.58
2019-02-09T20:18:35.385Z,100184.72
2019-02-09T20:21:02.878Z,100193.52
2019-02-09T20:23:29.974Z,100189.23
2019-02-09T20:25:57.241Z,100193.76
2019-02-09T20:28:24.762Z,100187.71
2019-02-09T20:30:52.212Z,100189.56
2019-02-09T20:33:19.316Z,100194.75
2019-02-09T20:35:46.935Z,100199.30
2019-02-09T20:38:14.041Z,100205.34
2019-02-09T20:40:44.005Z,100206.23
2019-02-09T20:43:13.396Z,100204.53
2019-02-09T20:45:40.496Z,100210.58
2019-02-09T20:48:08.113Z,100216.42
2019-02-09T20:50:35.551Z,100220.91
2019-02-09T20:53:02.753Z,100219.27
2019-02-09T20:55:29.862Z,100218.00
2019-02-09T20:57:57.057Z,100236.70
2019-02-09T21:00:24.825Z,100238.59
2019-02-09T21:02:51.906Z,100249.50
2019-02-09T21:05:59.902Z,100249.23
2019-02-09T21:08:27.227Z,100245.38
2019-02-09T21:10:54.632Z,100244.20
2019-02-09T21:13:21.798Z,100247.33
2019-02-09T21:15:48.928Z,100239.09
2019-02-09T21:18:16.061Z,100246.61
2019-02-09T21:20:43.236Z,100243.55
2019-02-09T21:23:10.757Z,100250.48
2019-02-09T21:25:39.687Z,100243.06
2019-02-09T21:28:06.846Z,100250.90
2019-02-09T21:30:33.987Z,100251.25
2019-02-09T21:33:01.079Z,100248.71
2019-02-09T21:35:28.517Z,100248.38
2019-02-09T21:38:09.224Z,100247.56
2019-02-09T21:40:36.731Z,100251.02
2019-02-09T21:43:04.280Z,100249.78
2019-02-09T21:45:31.670Z,100248.96
2019-02-09T21:47:58.827Z,100250.39
2019-02-09T21:50:28.459Z,100261.82
2019-02-09T21:56:05.558Z,100266.34
2019-02-09T21:58:33.062Z,100272.80
2019-02-09T22:01:00.150Z,100273.59
2019-02-09T22:03:27.319Z,100272.27
2019-02-09T22:05:54.633Z,100267.17
2019-02-09T22:08:21.728Z,100262.41
2019-02-09T22:10:48.943Z,100266.36
2019-02-09T22:13:16.036Z,100263.13
2019-02-09T22:15:43.196Z,100259.53
2019-02-09T22:18:11.093Z,100260.31
2019-02-09T22:20:38.192Z,100268.14
2019-02-09T22:23:05.449Z,100267.09
2019-02-09T22:25:32.663Z,100265.26
2019-02-09T22:27:59.756Z,100263.09
2019-02-09T22:30:27.617Z,100257.84
2019-02-09T22:32:55.445Z,100261.23
2019-02-09T22:35:22.608Z,100264.25
2019-02-09T22:37:49.692Z,100269.80
2019-02-09T22:40:19.098Z,100271.16
2019-02-09T22:42:46.242Z,100268.61
2019-02-09T22:45:14.464Z,100282.81
2019-02-09T22:47:41.672Z,100278.66
2019-02-09T22:50:18.968Z,100276.88
2019-02-09T22:52:43.202Z,100272.61
2019-02-09T22:55:11.669Z,100280.03
2019-02-09T22:57:39.095Z,100283.16
2019-02-09T23:03:49.455Z,100278.93
2019-02-09T23:06:55.857Z,100278.63
2019-02-09T23:09:25.026Z,100282.97
2019-02-09T23:11:51.767Z,100283.84
2019-02-09T23:14:19.509Z,100277.67
2019-02-09T23:16:46.596Z,100283.80
2019-02-09T23:19:14.235Z,100289.05
2019-02-09T23:21:41.189Z,100286.11
2019-02-09T23:24:08.932Z,100295.14
2019-02-09T23:26:36.310Z,100296.12
2019-02-09T23:29:03.528Z,100292.25
2019-02-09T23:31:30.448Z,100291.48
2019-02-09T23:33:57.584Z,100290.91
2019-02-09T23:36:24.748Z,100297.13
2019-02-09T23:38:52.033Z,100294.21
2019-02-09T23:41:18.888Z,100296.52
2019-02-09T23:43:46.215Z,100295.73
2019-02-09T23:46:13.743Z,100298.88
2019-02-09T23:48:41.082Z,100298.06
2019-02-09T23:51:08.173Z,100306.77
2019-02-09T23:53:34.976Z,100303.92
2019-02-09T23:56:01.704Z,100300.48
2019-02-09T23:58:28.802Z,100304.87
